sensor_id;sensor_type;location;lat;lon;timestamp;P1;durP1;ratioP1;P2;durP2;ratioP2
71503;SDS011;59323;50.874;7.028;2023-02-01T00:01:31;21.65;;;4.70;;
71503;SDS011;59323;50.874;7.028;2023-02-01T00:03:57;16.40;;;5.43;;
71503;SDS011;59323;50.874;7.028;2023-02-01T00:06:22;17.23;;;5.00;;
71503;SDS011;59323;50.874;7.028;2023-02-01T00:08:48;18.17;;;4.73;;
71503;SDS011;59323;50.874;7.028;2023-02-01T00:11:17;18.35;;;5.20;;
71503;SDS011;59323;50.874;7.028;2023-02-01T00:13:42;15.77;;;5.03;;
71503;SDS011;59323;50.874;7.028;2023-02-01T00:16:09;15.20;;;5.50;;
71503;SDS011;59323;50.874;7.028;2023-02-01T00:18:43;16.10;;;4.45;;
71503;SDS011;59323;50.874;7.028;2023-02-01T00:21:16;19.50;;;5.40;;
71503;SDS011;59323;50.874;7.028;2023-02-01T00:23:44;19.30;;;5.75;;
71503;SDS011;59323;50.874;7.028;2023-02-01T00:26:14;19.67;;;6.65;;
71503;SDS011;59323;50.874;7.028;2023-02-01T00:28:41;21.00;;;6.22;;
71503;SDS011;59323;50.874;7.028;2023-02-01T00:31:07;18.23;;;5.27;;
71503;SDS011;59323;50.874;7.028;2023-02-01T00:33:32;22.23;;;6.40;;
71503;SDS011;59323;50.874;7.028;2023-02-01T00:36:04;19.70;;;6.22;;
71503;SDS011;59323;50.874;7.028;2023-02-01T00:38:32;21.17;;;6.15;;
71503;SDS011;59323;50.874;7.028;2023-02-01T00:41:03;15.50;;;5.05;;
71503;SDS011;59323;50.874;7.028;2023-02-01T00:43:32;19.33;;;5.78;;
71503;SDS011;59323;50.874;7.028;2023-02-01T00:46:01;17.30;;;5.67;;
71503;SDS011;59323;50.874;7.028;2023-02-01T00:48:30;16.25;;;4.72;;
71503;SDS011;59323;50.874;7.028;2023-02-01T00:51:02;13.85;;;4.68;;
71503;SDS011;59323;50.874;7.028;2023-02-01T00:53:30;15.07;;;4.60;;
71503;SDS011;59323;50.874;7.028;2023-02-01T00:55:56;13.90;;;4.25;;
71503;SDS011;59323;50.874;7.028;2023-02-01T00:58:22;19.33;;;4.28;;
71503;SDS011;59323;50.874;7.028;2023-02-01T01:03:25;14.70;;;4.00;;
71503;SDS011;59323;50.874;7.028;2023-02-01T01:05:51;17.67;;;4.13;;
71503;SDS011;59323;50.874;7.028;2023-02-01T01:08:16;12.93;;;4.27;;
71503;SDS011;59323;50.874;7.028;2023-02-01T01:10:42;14.73;;;3.77;;
71503;SDS011;59323;50.874;7.028;2023-02-01T01:13:08;16.02;;;4.05;;
71503;SDS011;59323;50.874;7.028;2023-02-01T01:15:38;14.40;;;3.07;;
71503;SDS011;59323;50.874;7.028;2023-02-01T01:18:04;13.00;;;2.80;;
71503;SDS011;59323;50.874;7.028;2023-02-01T01:20:30;15.50;;;4.22;;
71503;SDS011;59323;50.874;7.028;2023-02-01T01:22:56;11.87;;;3.07;;
71503;SDS011;59323;50.874;7.028;2023-02-01T01:25:21;12.65;;;2.97;;
71503;SDS011;59323;50.874;7.028;2023-02-01T01:27:47;15.67;;;3.13;;
71503;SDS011;59323;50.874;7.028;2023-02-01T01:30:12;15.17;;;3.00;;
71503;SDS011;59323;50.874;7.028;2023-02-01T01:32:38;14.03;;;2.77;;
71503;SDS011;59323;50.874;7.028;2023-02-01T01:35:03;15.90;;;2.25;;
71503;SDS011;59323;50.874;7.028;2023-02-01T01:37:29;16.03;;;3.00;;
71503;SDS011;59323;50.874;7.028;2023-02-01T01:39:55;17.50;;;2.55;;
71503;SDS011;59323;50.874;7.028;2023-02-01T01:42:21;13.10;;;3.70;;
71503;SDS011;59323;50.874;7.028;2023-02-01T01:47:25;13.65;;;2.10;;
71503;SDS011;59323;50.874;7.028;2023-02-01T01:49:54;10.88;;;1.83;;
71503;SDS011;59323;50.874;7.028;2023-02-01T01:52:20;12.50;;;1.93;;
71503;SDS011;59323;50.874;7.028;2023-02-01T01:54:47;18.05;;;2.33;;
71503;SDS011;59323;50.874;7.028;2023-02-01T01:57:50;11.07;;;1.67;;
71503;SDS011;59323;50.874;7.028;2023-02-01T02:00:12;11.98;;;2.60;;
71503;SDS011;59323;50.874;7.028;2023-02-01T02:02:40;11.35;;;2.40;;
71503;SDS011;59323;50.874;7.028;2023-02-01T02:05:08;9.93;;;1.87;;
71503;SDS011;59323;50.874;7.028;2023-02-01T02:07:36;13.95;;;2.33;;
71503;SDS011;59323;50.874;7.028;2023-02-01T02:10:05;14.52;;;2.45;;
71503;SDS011;59323;50.874;7.028;2023-02-01T02:12:35;10.10;;;2.28;;
71503;SDS011;59323;50.874;7.028;2023-02-01T02:15:03;8.77;;;2.15;;
71503;SDS011;59323;50.874;7.028;2023-02-01T02:41:30;18.15;;;4.78;;
71503;SDS011;59323;50.874;7.028;2023-02-01T02:44:21;20.90;;;4.30;;
71503;SDS011;59323;50.874;7.028;2023-02-01T02:47:31;16.98;;;4.28;;
71503;SDS011;59323;50.874;7.028;2023-02-01T02:50:08;21.83;;;4.57;;
71503;SDS011;59323;50.874;7.028;2023-02-01T02:53:11;17.17;;;4.20;;
71503;SDS011;59323;50.874;7.028;2023-02-01T02:55:58;16.45;;;3.70;;
71503;SDS011;59323;50.874;7.028;2023-02-01T02:58:43;21.27;;;4.30;;
71503;SDS011;59323;50.874;7.028;2023-02-01T03:01:30;21.10;;;4.13;;
71503;SDS011;59323;50.874;7.028;2023-02-01T03:04:15;13.65;;;3.63;;
71503;SDS011;59323;50.874;7.028;2023-02-01T03:06:43;23.02;;;3.97;;
71503;SDS011;59323;50.874;7.028;2023-02-01T03:09:12;21.35;;;4.10;;
71503;SDS011;59323;50.874;7.028;2023-02-01T03:11:45;18.37;;;4.37;;
71503;SDS011;59323;50.874;7.028;2023-02-01T03:14:32;19.77;;;4.22;;
71503;SDS011;59323;50.874;7.028;2023-02-01T03:17:22;16.17;;;3.97;;
71503;SDS011;59323;50.874;7.028;2023-02-01T03:19:51;17.13;;;3.20;;
71503;SDS011;59323;50.874;7.028;2023-02-01T03:22:20;14.98;;;3.75;;
71503;SDS011;59323;50.874;7.028;2023-02-01T03:24:54;16.17;;;3.50;;
71503;SDS011;59323;50.874;7.028;2023-02-01T03:30:31;11.32;;;2.85;;
71503;SDS011;59323;50.874;7.028;2023-02-01T03:33:02;17.95;;;3.50;;
71503;SDS011;59323;50.874;7.028;2023-02-01T03:35:39;14.68;;;3.22;;
71503;SDS011;59323;50.874;7.028;2023-02-01T03:38:23;11.77;;;3.20;;
71503;SDS011;59323;50.874;7.028;2023-02-01T03:40:57;17.65;;;3.08;;
71503;SDS011;59323;50.874;7.028;2023-02-01T03:43:34;18.85;;;3.00;;
71503;SDS011;59323;50.874;7.028;2023-02-01T03:46:28;13.57;;;3.05;;
71503;SDS011;59323;50.874;7.028;2023-02-01T03:49:01;17.98;;;3.95;;
71503;SDS011;59323;50.874;7.028;2023-02-01T03:51:30;13.93;;;3.10;;
71503;SDS011;59323;50.874;7.028;2023-02-01T03:53:58;18.23;;;2.90;;
71503;SDS011;59323;50.874;7.028;2023-02-01T03:56:27;13.50;;;2.58;;
71503;SDS011;59323;50.874;7.028;2023-02-01T03:58:53;17.80;;;3.67;;
71503;SDS011;59323;50.874;7.028;2023-02-01T04:01:28;11.15;;;2.67;;
71503;SDS011;59323;50.874;7.028;2023-02-01T04:03:55;19.93;;;3.50;;
71503;SDS011;59323;50.874;7.028;2023-02-01T04:06:22;15.30;;;3.25;;
71503;SDS011;59323;50.874;7.028;2023-02-01T04:08:49;16.70;;;3.30;;
71503;SDS011;59323;50.874;7.028;2023-02-01T04:11:14;16.00;;;2.90;;
71503;SDS011;59323;50.874;7.028;2023-02-01T04:13:40;18.70;;;3.47;;
71503;SDS011;59323;50.874;7.028;2023-02-01T04:16:05;16.93;;;3.23;;
71503;SDS011;59323;50.874;7.028;2023-02-01T04:18:31;18.87;;;3.50;;
71503;SDS011;59323;50.874;7.028;2023-02-01T04:20:56;14.93;;;3.10;;
71503;SDS011;59323;50.874;7.028;2023-02-01T04:23:21;16.35;;;3.13;;
71503;SDS011;59323;50.874;7.028;2023-02-01T04:25:46;16.43;;;3.13;;
71503;SDS011;59323;50.874;7.028;2023-02-01T04:28:12;14.00;;;2.50;;
71503;SDS011;59323;50.874;7.028;2023-02-01T04:30:37;18.67;;;3.37;;
71503;SDS011;59323;50.874;7.028;2023-02-01T04:33:03;17.07;;;3.53;;
71503;SDS011;59323;50.874;7.028;2023-02-01T04:35:31;14.35;;;2.75;;
71503;SDS011;59323;50.874;7.028;2023-02-01T04:37:57;14.13;;;2.83;;
71503;SDS011;59323;50.874;7.028;2023-02-01T04:40:22;15.87;;;2.83;;
71503;SDS011;59323;50.874;7.028;2023-02-01T04:42:48;16.80;;;3.10;;
71503;SDS011;59323;50.874;7.028;2023-02-01T04:45:13;15.83;;;2.50;;
71503;SDS011;59323;50.874;7.028;2023-02-01T04:47:38;13.30;;;2.83;;
71503;SDS011;59323;50.874;7.028;2023-02-01T04:50:04;15.25;;;2.92;;
71503;SDS011;59323;50.874;7.028;2023-02-01T04:52:31;18.50;;;3.40;;
71503;SDS011;59323;50.874;7.028;2023-02-01T04:54:57;19.25;;;3.13;;
71503;SDS011;59323;50.874;7.028;2023-02-01T04:57:24;18.85;;;3.42;;
71503;SDS011;59323;50.874;7.028;2023-02-01T04:59:50;14.63;;;2.35;;
71503;SDS011;59323;50.874;7.028;2023-02-01T05:02:15;14.43;;;2.80;;
71503;SDS011;59323;50.874;7.028;2023-02-01T05:04:40;12.83;;;2.87;;
71503;SDS011;59323;50.874;7.028;2023-02-01T05:07:06;17.87;;;2.80;;
71503;SDS011;59323;50.874;7.028;2023-02-01T05:09:31;19.83;;;3.20;;
71503;SDS011;59323;50.874;7.028;2023-02-01T05:11:56;16.83;;;3.03;;
71503;SDS011;59323;50.874;7.028;2023-02-01T05:14:40;16.42;;;3.15;;
71503;SDS011;59323;50.874;7.028;2023-02-01T05:17:06;17.33;;;2.60;;
71503;SDS011;59323;50.874;7.028;2023-02-01T05:19:31;16.40;;;2.53;;
71503;SDS011;59323;50.874;7.028;2023-02-01T05:21:57;16.23;;;2.47;;
71503;SDS011;59323;50.874;7.028;2023-02-01T05:24:22;13.15;;;2.70;;
71503;SDS011;59323;50.874;7.028;2023-02-01T05:26:48;16.73;;;2.23;;
71503;SDS011;59323;50.874;7.028;2023-02-01T05:29:14;16.87;;;2.43;;
71503;SDS011;59323;50.874;7.028;2023-02-01T05:31:40;16.30;;;2.30;;
71503;SDS011;59323;50.874;7.028;2023-02-01T05:34:06;14.13;;;1.85;;
71503;SDS011;59323;50.874;7.028;2023-02-01T05:36:31;10.93;;;1.80;;
71503;SDS011;59323;50.874;7.028;2023-02-01T05:38:57;15.00;;;2.58;;
71503;SDS011;59323;50.874;7.028;2023-02-01T05:41:22;11.70;;;1.83;;
71503;SDS011;59323;50.874;7.028;2023-02-01T05:43:48;12.10;;;2.40;;
71503;SDS011;59323;50.874;7.028;2023-02-01T05:46:13;13.67;;;2.20;;
71503;SDS011;59323;50.874;7.028;2023-02-01T05:48:39;9.43;;;1.60;;
71503;SDS011;59323;50.874;7.028;2023-02-01T05:51:05;9.90;;;2.03;;
71503;SDS011;59323;50.874;7.028;2023-02-01T05:53:30;17.17;;;2.10;;
71503;SDS011;59323;50.874;7.028;2023-02-01T05:55:56;17.80;;;2.27;;
71503;SDS011;59323;50.874;7.028;2023-02-01T05:58:21;15.55;;;1.95;;
71503;SDS011;59323;50.874;7.028;2023-02-01T06:00:47;12.07;;;1.87;;
71503;SDS011;59323;50.874;7.028;2023-02-01T06:03:12;17.10;;;2.33;;
71503;SDS011;59323;50.874;7.028;2023-02-01T06:05:37;11.50;;;1.93;;
71503;SDS011;59323;50.874;7.028;2023-02-01T06:08:03;15.47;;;1.97;;
71503;SDS011;59323;50.874;7.028;2023-02-01T06:10:28;11.93;;;1.60;;
71503;SDS011;59323;50.874;7.028;2023-02-01T06:12:53;14.10;;;2.20;;
71503;SDS011;59323;50.874;7.028;2023-02-01T06:15:19;10.10;;;1.80;;
71503;SDS011;59323;50.874;7.028;2023-02-01T06:17:45;13.50;;;1.80;;
71503;SDS011;59323;50.874;7.028;2023-02-01T06:20:11;13.18;;;1.45;;
71503;SDS011;59323;50.874;7.028;2023-02-01T06:22:38;16.27;;;2.10;;
71503;SDS011;59323;50.874;7.028;2023-02-01T06:25:05;16.63;;;2.03;;
71503;SDS011;59323;50.874;7.028;2023-02-01T06:27:32;9.75;;;1.60;;
71503;SDS011;59323;50.874;7.028;2023-02-01T06:29:58;14.37;;;2.33;;
71503;SDS011;59323;50.874;7.028;2023-02-01T06:32:23;14.75;;;1.90;;
71503;SDS011;59323;50.874;7.028;2023-02-01T06:34:49;12.20;;;1.50;;
71503;SDS011;59323;50.874;7.028;2023-02-01T06:37:15;13.90;;;1.52;;
71503;SDS011;59323;50.874;7.028;2023-02-01T06:39:40;13.37;;;1.73;;
71503;SDS011;59323;50.874;7.028;2023-02-01T06:42:06;15.90;;;2.07;;
71503;SDS011;59323;50.874;7.028;2023-02-01T06:44:31;13.40;;;1.80;;
71503;SDS011;59323;50.874;7.028;2023-02-01T06:46:57;9.63;;;1.70;;
71503;SDS011;59323;50.874;7.028;2023-02-01T06:49:22;12.40;;;1.60;;
71503;SDS011;59323;50.874;7.028;2023-02-01T06:51:48;13.57;;;1.63;;
71503;SDS011;59323;50.874;7.028;2023-02-01T06:54:14;12.57;;;1.90;;
71503;SDS011;59323;50.874;7.028;2023-02-01T06:56:41;17.15;;;2.67;;
71503;SDS011;59323;50.874;7.028;2023-02-01T06:59:06;16.60;;;2.40;;
71503;SDS011;59323;50.874;7.028;2023-02-01T07:01:32;14.95;;;1.88;;
71503;SDS011;59323;50.874;7.028;2023-02-01T07:03:58;17.85;;;2.55;;
71503;SDS011;59323;50.874;7.028;2023-02-01T07:06:24;18.27;;;2.20;;
71503;SDS011;59323;50.874;7.028;2023-02-01T07:08:50;13.97;;;2.00;;
71503;SDS011;59323;50.874;7.028;2023-02-01T07:11:17;20.00;;;2.30;;
71503;SDS011;59323;50.874;7.028;2023-02-01T07:13:43;12.40;;;2.22;;
71503;SDS011;59323;50.874;7.028;2023-02-01T07:16:13;11.57;;;1.70;;
71503;SDS011;59323;50.874;7.028;2023-02-01T07:18:46;13.15;;;1.80;;
71503;SDS011;59323;50.874;7.028;2023-02-01T07:21:12;18.05;;;1.83;;
71503;SDS011;59323;50.874;7.028;2023-02-01T07:23:37;13.10;;;1.93;;
71503;SDS011;59323;50.874;7.028;2023-02-01T07:26:04;10.73;;;1.83;;
71503;SDS011;59323;50.874;7.028;2023-02-01T07:28:32;12.27;;;1.73;;
71503;SDS011;59323;50.874;7.028;2023-02-01T07:31:05;20.10;;;1.80;;
71503;SDS011;59323;50.874;7.028;2023-02-01T07:33:33;11.03;;;1.77;;
71503;SDS011;59323;50.874;7.028;2023-02-01T07:36:00;16.10;;;1.98;;
71503;SDS011;59323;50.874;7.028;2023-02-01T07:38:27;14.98;;;1.90;;
71503;SDS011;59323;50.874;7.028;2023-02-01T07:40:56;12.60;;;2.15;;
71503;SDS011;59323;50.874;7.028;2023-02-01T07:43:23;10.93;;;1.60;;
71503;SDS011;59323;50.874;7.028;2023-02-01T07:45:52;12.40;;;1.70;;
71503;SDS011;59323;50.874;7.028;2023-02-01T07:48:19;18.80;;;1.93;;
71503;SDS011;59323;50.874;7.028;2023-02-01T07:50:44;13.23;;;1.88;;
71503;SDS011;59323;50.874;7.028;2023-02-01T07:53:11;14.70;;;2.47;;
71503;SDS011;59323;50.874;7.028;2023-02-01T07:55:37;17.77;;;1.88;;
71503;SDS011;59323;50.874;7.028;2023-02-01T07:58:03;13.38;;;2.22;;
71503;SDS011;59323;50.874;7.028;2023-02-01T08:00:29;15.25;;;1.60;;
71503;SDS011;59323;50.874;7.028;2023-02-01T08:03:13;17.67;;;2.50;;
71503;SDS011;59323;50.874;7.028;2023-02-01T08:05:38;14.13;;;2.57;;
71503;SDS011;59323;50.874;7.028;2023-02-01T08:08:04;10.43;;;2.15;;
71503;SDS011;59323;50.874;7.028;2023-02-01T08:10:30;14.00;;;2.05;;
71503;SDS011;59323;50.874;7.028;2023-02-01T08:12:59;15.53;;;2.10;;
71503;SDS011;59323;50.874;7.028;2023-02-01T08:15:25;16.00;;;2.10;;
71503;SDS011;59323;50.874;7.028;2023-02-01T08:17:54;19.95;;;1.90;;
71503;SDS011;59323;50.874;7.028;2023-02-01T08:20:20;16.13;;;2.13;;
71503;SDS011;59323;50.874;7.028;2023-02-01T08:22:49;17.45;;;2.25;;
71503;SDS011;59323;50.874;7.028;2023-02-01T08:25:15;10.52;;;1.88;;
71503;SDS011;59323;50.874;7.028;2023-02-01T08:27:42;21.83;;;2.10;;
71503;SDS011;59323;50.874;7.028;2023-02-01T08:30:08;19.83;;;2.47;;
71503;SDS011;59323;50.874;7.028;2023-02-01T08:32:35;15.30;;;2.00;;
71503;SDS011;59323;50.874;7.028;2023-02-01T08:35:00;17.17;;;2.57;;
71503;SDS011;59323;50.874;7.028;2023-02-01T08:37:26;21.08;;;2.50;;
71503;SDS011;59323;50.874;7.028;2023-02-01T08:39:52;14.30;;;1.90;;
71503;SDS011;59323;50.874;7.028;2023-02-01T08:42:17;15.67;;;1.83;;
71503;SDS011;59323;50.874;7.028;2023-02-01T08:45:02;15.52;;;2.00;;
71503;SDS011;59323;50.874;7.028;2023-02-01T08:47:28;19.25;;;1.80;;
71503;SDS011;59323;50.874;7.028;2023-02-01T08:49:53;15.53;;;2.30;;
71503;SDS011;59323;50.874;7.028;2023-02-01T08:52:19;12.52;;;2.65;;
71503;SDS011;59323;50.874;7.028;2023-02-01T08:54:44;19.30;;;2.03;;
71503;SDS011;59323;50.874;7.028;2023-02-01T08:57:10;17.20;;;2.57;;
71503;SDS011;59323;50.874;7.028;2023-02-01T08:59:35;14.00;;;1.80;;
71503;SDS011;59323;50.874;7.028;2023-02-01T09:02:01;17.52;;;2.30;;
71503;SDS011;59323;50.874;7.028;2023-02-01T09:04:26;18.77;;;2.50;;
71503;SDS011;59323;50.874;7.028;2023-02-01T09:06:51;16.90;;;2.00;;
71503;SDS011;59323;50.874;7.028;2023-02-01T09:09:17;10.77;;;2.23;;
71503;SDS011;59323;50.874;7.028;2023-02-01T09:11:42;16.38;;;1.67;;
71503;SDS011;59323;50.874;7.028;2023-02-01T09:14:08;16.33;;;2.13;;
71503;SDS011;59323;50.874;7.028;2023-02-01T09:16:33;24.03;;;2.73;;
71503;SDS011;59323;50.874;7.028;2023-02-01T09:18:58;11.80;;;1.67;;
71503;SDS011;59323;50.874;7.028;2023-02-01T09:21:24;16.43;;;2.00;;
71503;SDS011;59323;50.874;7.028;2023-02-01T09:23:52;18.80;;;1.80;;
71503;SDS011;59323;50.874;7.028;2023-02-01T09:26:17;14.25;;;1.67;;
71503;SDS011;59323;50.874;7.028;2023-02-01T09:28:43;11.97;;;1.80;;
71503;SDS011;59323;50.874;7.028;2023-02-01T09:31:08;11.40;;;1.80;;
71503;SDS011;59323;50.874;7.028;2023-02-01T09:33:33;20.23;;;2.07;;
71503;SDS011;59323;50.874;7.028;2023-02-01T09:36:00;12.82;;;1.88;;
71503;SDS011;59323;50.874;7.028;2023-02-01T09:38:26;14.20;;;2.53;;
71503;SDS011;59323;50.874;7.028;2023-02-01T09:40:52;12.18;;;1.83;;
71503;SDS011;59323;50.874;7.028;2023-02-01T09:46:24;13.13;;;1.90;;
71503;SDS011;59323;50.874;7.028;2023-02-01T09:49:00;17.77;;;2.65;;
71503;SDS011;59323;50.874;7.028;2023-02-01T09:51:39;13.20;;;1.87;;
71503;SDS011;59323;50.874;7.028;2023-02-01T09:54:09;10.43;;;1.50;;
71503;SDS011;59323;50.874;7.028;2023-02-01T10:02:20;13.63;;;2.15;;
71503;SDS011;59323;50.874;7.028;2023-02-01T10:04:52;15.93;;;1.93;;
71503;SDS011;59323;50.874;7.028;2023-02-01T10:10:30;14.98;;;2.20;;
71503;SDS011;59323;50.874;7.028;2023-02-01T10:13:12;16.02;;;2.20;;
71503;SDS011;59323;50.874;7.028;2023-02-01T10:23:54;19.83;;;3.28;;
71503;SDS011;59323;50.874;7.028;2023-02-01T10:26:24;13.32;;;1.55;;
71503;SDS011;59323;50.874;7.028;2023-02-01T10:28:56;13.43;;;2.00;;
71503;SDS011;59323;50.874;7.028;2023-02-01T10:31:25;12.83;;;2.20;;
71503;SDS011;59323;50.874;7.028;2023-02-01T10:33:57;14.43;;;2.47;;
71503;SDS011;59323;50.874;7.028;2023-02-01T10:36:28;15.88;;;2.08;;
71503;SDS011;59323;50.874;7.028;2023-02-01T10:39:00;14.98;;;2.20;;
71503;SDS011;59323;50.874;7.028;2023-02-01T10:41:33;20.50;;;2.60;;
71503;SDS011;59323;50.874;7.028;2023-02-01T10:44:00;14.03;;;2.20;;
71503;SDS011;59323;50.874;7.028;2023-02-01T10:46:30;13.57;;;2.08;;
71503;SDS011;59323;50.874;7.028;2023-02-01T10:48:56;12.85;;;2.15;;
71503;SDS011;59323;50.874;7.028;2023-02-01T10:51:30;15.43;;;1.90;;
71503;SDS011;59323;50.874;7.028;2023-02-01T10:54:17;16.33;;;2.35;;
71503;SDS011;59323;50.874;7.028;2023-02-01T10:56:56;7.33;;;1.57;;
71503;SDS011;59323;50.874;7.028;2023-02-01T10:59:24;15.32;;;1.70;;
71503;SDS011;59323;50.874;7.028;2023-02-01T11:01:57;13.40;;;2.00;;
71503;SDS011;59323;50.874;7.028;2023-02-01T11:04:25;14.13;;;2.45;;
71503;SDS011;59323;50.874;7.028;2023-02-01T11:07:05;12.60;;;1.77;;
71503;SDS011;59323;50.874;7.028;2023-02-01T11:09:34;14.60;;;1.92;;
71503;SDS011;59323;50.874;7.028;2023-02-01T11:12:05;17.15;;;2.75;;
71503;SDS011;59323;50.874;7.028;2023-02-01T11:14:45;13.27;;;2.23;;
71503;SDS011;59323;50.874;7.028;2023-02-01T11:17:17;13.75;;;2.00;;
71503;SDS011;59323;50.874;7.028;2023-02-01T11:20:26;20.35;;;2.47;;
71503;SDS011;59323;50.874;7.028;2023-02-01T11:23:01;15.30;;;2.72;;
71503;SDS011;59323;50.874;7.028;2023-02-01T11:25:27;13.82;;;2.75;;
71503;SDS011;59323;50.874;7.028;2023-02-01T11:27:54;19.97;;;2.70;;
71503;SDS011;59323;50.874;7.028;2023-02-01T11:30:34;16.33;;;2.45;;
71503;SDS011;59323;50.874;7.028;2023-02-01T11:33:04;12.73;;;1.85;;
71503;SDS011;59323;50.874;7.028;2023-02-01T11:35:30;13.67;;;1.80;;
71503;SDS011;59323;50.874;7.028;2023-02-01T11:37:57;11.85;;;2.13;;
71503;SDS011;59323;50.874;7.028;2023-02-01T11:40:34;18.75;;;2.63;;
71503;SDS011;59323;50.874;7.028;2023-02-01T11:43:16;15.93;;;2.22;;
71503;SDS011;59323;50.874;7.028;2023-02-01T11:48:30;18.00;;;1.90;;
71503;SDS011;59323;50.874;7.028;2023-02-01T11:56:28;10.90;;;1.52;;
71503;SDS011;59323;50.874;7.028;2023-02-01T12:01:49;14.73;;;1.87;;
71503;SDS011;59323;50.874;7.028;2023-02-01T12:10:28;15.75;;;2.20;;
71503;SDS011;59323;50.874;7.028;2023-02-01T12:15:56;12.73;;;1.83;;
71503;SDS011;59323;50.874;7.028;2023-02-01T12:18:32;9.57;;;1.70;;
71503;SDS011;59323;50.874;7.028;2023-02-01T12:43:00;10.33;;;1.70;;
71503;SDS011;59323;50.874;7.028;2023-02-01T12:45:36;15.40;;;2.35;;
71503;SDS011;59323;50.874;7.028;2023-02-01T12:48:18;12.70;;;1.63;;
71503;SDS011;59323;50.874;7.028;2023-02-01T12:50:59;11.15;;;2.00;;
71503;SDS011;59323;50.874;7.028;2023-02-01T12:56:34;11.40;;;1.63;;
71503;SDS011;59323;50.874;7.028;2023-02-01T12:59:08;15.02;;;1.73;;
71503;SDS011;59323;50.874;7.028;2023-02-01T13:01:45;14.40;;;1.92;;
71503;SDS011;59323;50.874;7.028;2023-02-01T13:04:21;12.30;;;2.30;;
71503;SDS011;59323;50.874;7.028;2023-02-01T13:06:51;10.80;;;2.08;;
71503;SDS011;59323;50.874;7.028;2023-02-01T13:11:55;14.93;;;2.13;;
71503;SDS011;59323;50.874;7.028;2023-02-01T13:16:51;12.40;;;2.20;;
71503;SDS011;59323;50.874;7.028;2023-02-01T13:19:28;14.87;;;2.00;;
71503;SDS011;59323;50.874;7.028;2023-02-01T13:22:15;12.98;;;2.10;;
71503;SDS011;59323;50.874;7.028;2023-02-01T13:24:47;13.65;;;2.92;;
71503;SDS011;59323;50.874;7.028;2023-02-01T13:27:19;16.43;;;1.77;;
71503;SDS011;59323;50.874;7.028;2023-02-01T13:29:52;11.90;;;2.13;;
71503;SDS011;59323;50.874;7.028;2023-02-01T13:38:07;17.00;;;2.00;;
71503;SDS011;59323;50.874;7.028;2023-02-01T13:41:02;11.65;;;1.83;;
71503;SDS011;59323;50.874;7.028;2023-02-01T13:43:30;12.07;;;2.35;;
71503;SDS011;59323;50.874;7.028;2023-02-01T13:45:57;12.80;;;1.53;;
71503;SDS011;59323;50.874;7.028;2023-02-01T13:48:39;12.65;;;1.77;;
71503;SDS011;59323;50.874;7.028;2023-02-01T13:51:11;12.95;;;2.05;;
71503;SDS011;59323;50.874;7.028;2023-02-01T13:53:44;12.15;;;2.10;;
71503;SDS011;59323;50.874;7.028;2023-02-01T13:56:13;13.57;;;2.00;;
71503;SDS011;59323;50.874;7.028;2023-02-01T13:58:46;10.63;;;1.73;;
71503;SDS011;59323;50.874;7.028;2023-02-01T14:11:37;11.43;;;2.30;;
71503;SDS011;59323;50.874;7.028;2023-02-01T14:16:40;13.10;;;2.03;;
71503;SDS011;59323;50.874;7.028;2023-02-01T14:19:25;10.07;;;2.08;;
71503;SDS011;59323;50.874;7.028;2023-02-01T14:21:52;15.02;;;2.00;;
71503;SDS011;59323;50.874;7.028;2023-02-01T14:27:00;12.77;;;1.67;;
71503;SDS011;59323;50.874;7.028;2023-02-01T14:29:34;13.63;;;1.95;;
71503;SDS011;59323;50.874;7.028;2023-02-01T14:32:19;16.52;;;1.95;;
71503;SDS011;59323;50.874;7.028;2023-02-01T14:42:28;15.07;;;2.07;;
71503;SDS011;59323;50.874;7.028;2023-02-01T14:47:45;11.45;;;2.17;;
71503;SDS011;59323;50.874;7.028;2023-02-01T14:52:49;10.77;;;1.90;;
71503;SDS011;59323;50.874;7.028;2023-02-01T15:01:02;11.02;;;2.35;;
71503;SDS011;59323;50.874;7.028;2023-02-01T15:04:00;10.50;;;2.00;;
71503;SDS011;59323;50.874;7.028;2023-02-01T15:06:40;12.52;;;1.67;;
71503;SDS011;59323;50.874;7.028;2023-02-01T15:14:38;12.18;;;1.92;;
71503;SDS011;59323;50.874;7.028;2023-02-01T15:17:24;7.57;;;1.60;;
71503;SDS011;59323;50.874;7.028;2023-02-01T15:19:55;9.50;;;1.45;;
71503;SDS011;59323;50.874;7.028;2023-02-01T15:22:22;11.43;;;1.87;;
71503;SDS011;59323;50.874;7.028;2023-02-01T15:24:55;11.98;;;1.50;;
71503;SDS011;59323;50.874;7.028;2023-02-01T15:27:21;10.25;;;1.77;;
71503;SDS011;59323;50.874;7.028;2023-02-01T15:29:47;7.27;;;1.23;;
71503;SDS011;59323;50.874;7.028;2023-02-01T15:32:32;8.15;;;1.45;;
71503;SDS011;59323;50.874;7.028;2023-02-01T15:35:04;12.37;;;1.63;;
71503;SDS011;59323;50.874;7.028;2023-02-01T15:37:30;11.27;;;1.40;;
71503;SDS011;59323;50.874;7.028;2023-02-01T15:42:34;10.30;;;1.60;;
71503;SDS011;59323;50.874;7.028;2023-02-01T15:45:01;11.30;;;1.50;;
71503;SDS011;59323;50.874;7.028;2023-02-01T15:47:28;9.83;;;1.27;;
71503;SDS011;59323;50.874;7.028;2023-02-01T15:49:57;8.77;;;1.40;;
71503;SDS011;59323;50.874;7.028;2023-02-01T15:52:34;6.28;;;1.00;;
71503;SDS011;59323;50.874;7.028;2023-02-01T15:55:00;8.95;;;1.33;;
71503;SDS011;59323;50.874;7.028;2023-02-01T15:57:31;15.73;;;1.53;;
71503;SDS011;59323;50.874;7.028;2023-02-01T16:00:04;12.48;;;1.80;;
71503;SDS011;59323;50.874;7.028;2023-02-01T16:05:36;11.63;;;1.42;;
71503;SDS011;59323;50.874;7.028;2023-02-01T16:08:09;8.70;;;1.67;;
71503;SDS011;59323;50.874;7.028;2023-02-01T16:10:40;10.47;;;1.67;;
71503;SDS011;59323;50.874;7.028;2023-02-01T16:13:10;10.68;;;1.52;;
71503;SDS011;59323;50.874;7.028;2023-02-01T16:15:36;13.73;;;1.60;;
71503;SDS011;59323;50.874;7.028;2023-02-01T16:18:02;8.40;;;1.20;;
71503;SDS011;59323;50.874;7.028;2023-02-01T16:20:27;9.90;;;1.35;;
71503;SDS011;59323;50.874;7.028;2023-02-01T16:22:54;6.15;;;1.42;;
71503;SDS011;59323;50.874;7.028;2023-02-01T16:25:19;10.93;;;1.50;;
71503;SDS011;59323;50.874;7.028;2023-02-01T16:27:45;10.80;;;1.80;;
71503;SDS011;59323;50.874;7.028;2023-02-01T16:30:10;12.57;;;1.80;;
71503;SDS011;59323;50.874;7.028;2023-02-01T16:32:36;13.38;;;1.77;;
71503;SDS011;59323;50.874;7.028;2023-02-01T16:35:03;10.73;;;1.55;;
71503;SDS011;59323;50.874;7.028;2023-02-01T16:37:30;7.97;;;1.57;;
71503;SDS011;59323;50.874;7.028;2023-02-01T16:39:58;10.60;;;1.48;;
71503;SDS011;59323;50.874;7.028;2023-02-01T16:42:23;15.27;;;1.70;;
71503;SDS011;59323;50.874;7.028;2023-02-01T16:44:49;11.03;;;1.87;;
71503;SDS011;59323;50.874;7.028;2023-02-01T16:47:15;9.07;;;1.70;;
71503;SDS011;59323;50.874;7.028;2023-02-01T16:49:42;13.20;;;1.83;;
71503;SDS011;59323;50.874;7.028;2023-02-01T16:52:18;8.13;;;1.33;;
71503;SDS011;59323;50.874;7.028;2023-02-01T16:54:48;8.60;;;1.75;;
71503;SDS011;59323;50.874;7.028;2023-02-01T16:57:14;9.80;;;1.97;;
71503;SDS011;59323;50.874;7.028;2023-02-01T16:59:41;16.55;;;2.35;;
71503;SDS011;59323;50.874;7.028;2023-02-01T17:02:10;14.25;;;2.40;;
71503;SDS011;59323;50.874;7.028;2023-02-01T17:04:37;10.48;;;2.38;;
71503;SDS011;59323;50.874;7.028;2023-02-01T17:07:02;15.40;;;2.60;;
71503;SDS011;59323;50.874;7.028;2023-02-01T17:09:34;19.60;;;2.47;;
71503;SDS011;59323;50.874;7.028;2023-02-01T17:12:02;15.73;;;2.60;;
71503;SDS011;59323;50.874;7.028;2023-02-01T17:14:29;18.90;;;2.70;;
71503;SDS011;59323;50.874;7.028;2023-02-01T17:16:56;14.48;;;2.60;;
71503;SDS011;59323;50.874;7.028;2023-02-01T17:19:22;14.80;;;2.53;;
71503;SDS011;59323;50.874;7.028;2023-02-01T17:21:49;16.37;;;3.60;;
71503;SDS011;59323;50.874;7.028;2023-02-01T17:24:17;13.20;;;2.80;;